createdAt,value
2023-03-25T00:02:09.062Z,1.63
2023-03-25T00:04:54.879Z,1.95
2023-03-25T00:07:40.781Z,2.00
2023-03-25T00:10:26.313Z,2.50
2023-03-25T00:13:13.625Z,2.38
2023-03-25T00:15:59.784Z,2.72
2023-03-25T00:18:48.002Z,2.90
2023-03-25T00:21:33.545Z,2.67
2023-03-25T00:24:18.521Z,2.83
2023-03-25T00:27:04.024Z,3.67
2023-03-25T00:29:49.062Z,3.42
2023-03-25T00:32:34.309Z,3.42
2023-03-25T00:35:20.509Z,2.97
2023-03-25T00:38:07.731Z,2.28
2023-03-25T00:40:53.122Z,3.28
2023-03-25T00:43:38.664Z,3.22
2023-03-25T00:46:27.030Z,4.10
2023-03-25T00:49:12.756Z,3.42
2023-03-25T00:51:57.703Z,3.72
2023-03-25T00:54:45.729Z,3.33
2023-03-25T00:57:31.407Z,3.65
2023-03-25T01:00:18.334Z,2.85
2023-03-25T01:03:04.147Z,3.95
2023-03-25T01:05:50.630Z,3.60
2023-03-25T01:08:35.917Z,3.58
2023-03-25T01:11:23.790Z,3.40
2023-03-25T01:14:24.255Z,3.47
2023-03-25T01:17:11.122Z,4.45
2023-03-25T01:19:56.131Z,3.40
2023-03-25T01:22:41.272Z,3.45
2023-03-25T01:25:26.193Z,2.58
2023-03-25T01:28:11.552Z,4.53
2023-03-25T01:31:02.016Z,3.40
2023-03-25T01:33:47.208Z,3.30
2023-03-25T01:36:32.633Z,3.45
2023-03-25T01:39:18.831Z,3.50
2023-03-25T01:42:04.380Z,3.13
2023-03-25T01:44:52.610Z,2.88
2023-03-25T01:47:38.079Z,3.20
2023-03-25T01:50:23.586Z,3.03
2023-03-25T01:53:10.293Z,3.83
2023-03-25T01:55:56.632Z,2.63
2023-03-25T01:58:44.083Z,2.83
2023-03-25T02:01:31.314Z,2.35
2023-03-25T02:04:27.236Z,2.40
2023-03-25T02:07:16.416Z,2.50
2023-03-25T02:10:06.695Z,3.30
2023-03-25T02:12:51.886Z,2.58
2023-03-25T02:15:59.409Z,3.08
2023-03-25T02:18:58.706Z,3.05
2023-03-25T02:22:21.574Z,2.80
2023-03-25T02:25:25.386Z,2.92
2023-03-25T02:28:11.741Z,3.55
2023-03-25T02:31:18.013Z,2.85
2023-03-25T02:34:33.698Z,3.38
2023-03-25T02:37:34.460Z,2.40
2023-03-25T02:40:41.946Z,2.30
2023-03-25T02:43:58.752Z,2.50
2023-03-25T02:46:50.132Z,3.17
2023-03-25T02:49:40.444Z,2.75
2023-03-25T02:52:38.124Z,2.78
2023-03-25T02:55:25.506Z,2.50
2023-03-25T02:58:13.550Z,2.28
2023-03-25T03:00:59.056Z,2.92
2023-03-25T03:03:44.213Z,2.22
2023-03-25T03:06:29.658Z,2.42
2023-03-25T03:09:38.022Z,2.35
2023-03-25T03:12:45.900Z,3.05
2023-03-25T03:15:40.642Z,2.08
2023-03-25T03:18:57.273Z,2.58
2023-03-25T03:22:01.266Z,1.60
2023-03-25T03:24:54.274Z,2.67
2023-03-25T03:27:49.858Z,2.55
2023-03-25T03:30:49.322Z,2.28
2023-03-25T03:33:53.662Z,2.15
2023-03-25T03:36:44.615Z,2.20
2023-03-25T03:39:36.024Z,2.80
2023-03-25T03:42:28.858Z,2.78
2023-03-25T03:45:27.452Z,2.50
2023-03-25T03:48:17.706Z,2.20
2023-03-25T03:51:09.289Z,2.88
2023-03-25T03:54:33.102Z,2.33
2023-03-25T03:57:22.298Z,2.58
2023-03-25T04:00:16.708Z,2.05
2023-03-25T04:03:05.004Z,2.83
2023-03-25T04:06:00.831Z,2.95
2023-03-25T04:09:00.629Z,2.40
2023-03-25T04:11:59.765Z,2.60
2023-03-25T04:14:45.536Z,2.70
2023-03-25T04:17:32.931Z,2.35
2023-03-25T04:20:26.226Z,3.17
2023-03-25T04:23:16.218Z,2.58
2023-03-25T04:28:47.876Z,2.53
2023-03-25T04:31:33.411Z,2.95
2023-03-25T04:34:20.560Z,2.53
2023-03-25T04:37:06.327Z,3.17
2023-03-25T04:39:51.914Z,2.50
2023-03-25T04:42:37.453Z,2.35
2023-03-25T04:45:22.593Z,2.55
2023-03-25T04:48:20.014Z,2.90
2023-03-25T04:51:05.198Z,2.63
2023-03-25T04:53:50.398Z,2.42
2023-03-25T04:56:36.777Z,2.75
2023-03-25T04:59:23.188Z,3.10
2023-03-25T05:02:13.492Z,2.95
2023-03-25T05:05:02.252Z,3.28
2023-03-25T05:07:49.457Z,2.85
2023-03-25T05:10:36.306Z,2.65
2023-03-25T05:13:21.683Z,2.80
2023-03-25T05:16:07.521Z,2.80
2023-03-25T05:18:53.067Z,2.85
2023-03-25T05:21:41.013Z,2.72
2023-03-25T05:24:26.303Z,2.45
2023-03-25T05:27:11.501Z,2.67
2023-03-25T05:30:00.337Z,3.97
2023-03-25T05:32:50.746Z,2.70
2023-03-25T05:35:42.823Z,2.92
2023-03-25T05:38:28.248Z,3.45
2023-03-25T05:41:16.934Z,3.70
2023-03-25T05:44:02.962Z,2.83
2023-03-25T05:46:47.951Z,2.35
2023-03-25T05:49:33.019Z,3.22
2023-03-25T05:52:19.708Z,3.38
2023-03-25T05:55:05.050Z,3.38
2023-03-25T05:57:50.446Z,3.00
2023-03-25T06:00:37.254Z,3.70
2023-03-25T06:03:26.156Z,2.75
2023-03-25T06:06:15.157Z,3.07
2023-03-25T06:09:00.392Z,2.88
2023-03-25T06:11:46.600Z,3.40
2023-03-25T06:14:31.557Z,3.10
2023-03-25T06:17:19.042Z,3.00
2023-03-25T06:20:12.663Z,3.15
2023-03-25T06:22:57.550Z,3.08
2023-03-25T06:25:43.112Z,3.17
2023-03-25T06:28:28.395Z,2.78
2023-03-25T06:31:20.516Z,3.08
2023-03-25T06:34:05.715Z,3.38
2023-03-25T06:36:54.077Z,3.17
2023-03-25T06:39:39.337Z,2.78
2023-03-25T06:42:24.329Z,3.13
2023-03-25T06:45:10.274Z,3.10
2023-03-25T06:47:55.554Z,3.05
2023-03-25T06:50:42.683Z,3.67
2023-03-25T06:53:29.312Z,3.17
2023-03-25T06:56:14.462Z,3.13
2023-03-25T06:58:59.912Z,3.05
2023-03-25T07:01:44.874Z,3.00
2023-03-25T07:04:30.540Z,3.00
2023-03-25T07:07:15.634Z,2.58
2023-03-25T07:10:01.213Z,3.00
2023-03-25T07:12:46.414Z,3.25
2023-03-25T07:15:31.591Z,2.50
2023-03-25T07:18:16.900Z,2.80
2023-03-25T07:21:01.906Z,3.15
2023-03-25T07:23:46.920Z,3.28
2023-03-25T07:26:32.013Z,2.97
2023-03-25T07:29:16.765Z,2.53
2023-03-25T07:32:02.028Z,3.67
2023-03-25T07:34:47.082Z,3.47
2023-03-25T07:37:32.380Z,2.92
2023-03-25T07:40:17.321Z,2.35
2023-03-25T07:43:02.641Z,2.80
2023-03-25T07:45:48.033Z,2.80
2023-03-25T07:48:33.415Z,2.53
2023-03-25T07:51:18.558Z,2.60
2023-03-25T07:54:04.976Z,2.88
2023-03-25T07:56:54.590Z,2.78
2023-03-25T07:59:40.446Z,2.80
2023-03-25T08:02:25.526Z,3.55
2023-03-25T08:05:10.878Z,2.60
2023-03-25T08:08:00.134Z,2.28
2023-03-25T08:10:47.320Z,3.42
2023-03-25T08:13:32.838Z,2.83
2023-03-25T08:16:18.408Z,3.22
2023-03-25T08:19:03.707Z,2.33
2023-03-25T08:21:49.010Z,2.65
2023-03-25T08:24:34.221Z,2.67
2023-03-25T08:27:19.640Z,2.25
2023-03-25T08:30:05.654Z,2.47
2023-03-25T08:32:54.634Z,2.75
2023-03-25T08:35:40.803Z,2.22
2023-03-25T08:38:31.895Z,2.92
2023-03-25T08:41:19.736Z,2.40
2023-03-25T08:44:06.076Z,2.38
2023-03-25T08:46:51.321Z,2.20
2023-03-25T08:49:36.267Z,2.15
2023-03-25T08:52:21.535Z,2.53
2023-03-25T08:55:12.220Z,2.55
2023-03-25T08:58:01.398Z,3.22
2023-03-25T09:00:47.114Z,3.22
2023-03-25T09:03:33.010Z,2.67
2023-03-25T09:06:18.387Z,2.60
2023-03-25T09:09:05.448Z,2.95
2023-03-25T09:11:50.494Z,2.60
2023-03-25T09:14:36.021Z,1.98
2023-03-25T09:17:21.439Z,2.08
2023-03-25T09:20:10.775Z,2.15
2023-03-25T09:22:57.622Z,2.30
2023-03-25T09:25:43.126Z,2.08
2023-03-25T09:28:28.660Z,2.30
2023-03-25T09:31:14.951Z,2.33
2023-03-25T09:34:01.333Z,1.77
2023-03-25T09:36:46.732Z,1.88
2023-03-25T09:39:31.958Z,2.28
2023-03-25T09:42:54.419Z,2.40
2023-03-25T09:45:43.126Z,2.10
2023-03-25T09:48:42.888Z,2.17
2023-03-25T09:51:30.866Z,2.60
2023-03-25T09:54:25.890Z,1.90
2023-03-25T09:57:17.501Z,1.58
2023-03-25T10:00:06.951Z,1.55
2023-03-25T10:03:18.719Z,1.75
2023-03-25T10:06:10.584Z,1.98
2023-03-25T10:08:58.579Z,1.77
2023-03-25T10:12:06.564Z,2.10
2023-03-25T10:15:16.738Z,1.73
2023-03-25T10:21:20.724Z,2.13
2023-03-25T10:24:14.963Z,1.48
2023-03-25T10:27:06.828Z,1.90
2023-03-25T10:30:04.714Z,2.05
2023-03-25T10:32:54.976Z,2.20
2023-03-25T10:35:47.719Z,1.90
2023-03-25T10:38:35.977Z,2.00
2023-03-25T10:41:31.227Z,1.92
2023-03-25T10:44:16.693Z,1.50
2023-03-25T10:47:06.691Z,1.70
2023-03-25T10:49:52.739Z,2.00
2023-03-25T10:52:37.989Z,1.75
2023-03-25T10:55:32.741Z,1.52
2023-03-25T10:58:19.001Z,1.65
2023-03-25T11:01:12.992Z,1.40
2023-03-25T11:04:00.679Z,1.55
2023-03-25T11:06:52.628Z,1.35
2023-03-25T11:09:38.933Z,1.42
2023-03-25T11:12:36.657Z,2.00
2023-03-25T11:15:35.247Z,2.28
2023-03-25T11:18:40.704Z,1.98
2023-03-25T11:21:30.418Z,1.60
2023-03-25T11:24:19.364Z,1.76
2023-03-25T11:27:08.262Z,1.90
2023-03-25T11:29:56.929Z,1.95
2023-03-25T11:32:42.794Z,1.25
2023-03-25T11:35:30.850Z,1.38
2023-03-25T11:38:32.468Z,1.92
2023-03-25T11:41:17.729Z,1.50
2023-03-25T11:44:05.268Z,1.85
2023-03-25T11:46:52.623Z,2.17
2023-03-25T11:49:41.350Z,1.92
2023-03-25T11:52:45.636Z,1.90
2023-03-25T11:55:36.252Z,1.67
2023-03-25T11:58:28.715Z,1.52
2023-03-25T12:01:36.789Z,1.42
2023-03-25T12:04:23.866Z,1.70
2023-03-25T12:07:10.324Z,1.70
2023-03-25T12:10:05.410Z,1.80
2023-03-25T12:13:11.695Z,1.40
2023-03-25T12:16:15.575Z,1.50
2023-03-25T12:19:38.677Z,1.75
2023-03-25T12:22:45.256Z,2.03
2023-03-25T12:26:04.547Z,1.50
2023-03-25T12:28:55.449Z,1.50
2023-03-25T12:32:01.429Z,1.23
2023-03-25T12:35:06.255Z,1.50
2023-03-25T12:38:13.299Z,1.17
2023-03-25T12:41:20.242Z,1.25
2023-03-25T12:44:23.895Z,1.45
2023-03-25T12:47:35.205Z,1.45
2023-03-25T12:50:46.104Z,1.77
2023-03-25T12:53:41.554Z,1.55
2023-03-25T12:56:54.445Z,1.60
2023-03-25T13:00:14.652Z,1.20
2023-03-25T13:03:02.942Z,1.30
2023-03-25T13:05:58.277Z,1.13
2023-03-25T13:09:09.705Z,1.48
2023-03-25T13:11:59.607Z,1.58
2023-03-25T13:15:00.383Z,1.30
2023-03-25T13:17:55.994Z,1.05
2023-03-25T13:20:49.538Z,0.90
2023-03-25T13:23:37.874Z,1.23
2023-03-25T13:26:27.042Z,1.17
2023-03-25T13:29:29.927Z,1.42
2023-03-25T13:32:23.436Z,1.33
2023-03-25T13:35:24.585Z,1.27
2023-03-25T13:38:19.624Z,1.25
2023-03-25T13:41:12.898Z,1.20
2023-03-25T13:44:04.289Z,1.17
2023-03-25T13:47:12.516Z,1.70
2023-03-25T13:50:01.663Z,1.65
2023-03-25T13:52:55.141Z,1.55
2023-03-25T13:56:08.767Z,1.55
2023-03-25T13:59:09.232Z,1.90
2023-03-25T14:02:31.983Z,1.50
2023-03-25T14:05:54.677Z,1.00
2023-03-25T14:09:21.347Z,2.03
2023-03-25T14:12:12.036Z,1.52
2023-03-25T14:15:26.626Z,1.50
2023-03-25T14:18:20.157Z,1.50
2023-03-25T14:21:27.258Z,1.20
2023-03-25T14:24:18.835Z,1.08
2023-03-25T14:27:26.508Z,0.90
2023-03-25T14:30:27.809Z,0.80
2023-03-25T14:33:12.985Z,0.95
2023-03-25T14:35:58.332Z,0.93
2023-03-25T14:38:57.740Z,1.08
2023-03-25T14:42:08.185Z,1.30
2023-03-25T14:44:56.433Z,1.13
2023-03-25T14:47:55.761Z,1.30
2023-03-25T14:50:41.085Z,1.05
2023-03-25T14:53:27.375Z,1.23
2023-03-25T14:56:19.393Z,1.27
2023-03-25T14:59:17.160Z,1.20
2023-03-25T15:02:30.569Z,1.08
2023-03-25T15:05:28.592Z,1.15
2023-03-25T15:08:17.651Z,1.25
2023-03-25T15:11:07.505Z,0.90
2023-03-25T15:14:03.258Z,0.90
2023-03-25T15:16:48.579Z,1.17
2023-03-25T15:20:26.526Z,0.95
2023-03-25T15:23:36.338Z,0.90
2023-03-25T15:26:28.723Z,1.27
2023-03-25T15:29:32.967Z,1.10
2023-03-25T15:32:27.313Z,0.93
2023-03-25T15:35:36.986Z,1.02
2023-03-25T15:38:47.521Z,1.25
2023-03-25T15:42:10.010Z,1.40
2023-03-25T15:45:13.585Z,1.33
2023-03-25T15:48:32.739Z,1.50
2023-03-25T15:51:41.597Z,1.92
2023-03-25T15:54:37.463Z,1.63
2023-03-25T15:57:41.473Z,2.03
2023-03-25T16:00:31.826Z,2.25
2023-03-25T16:03:21.784Z,2.58
2023-03-25T16:06:08.424Z,2.33
2023-03-25T16:08:57.799Z,2.60
2023-03-25T16:11:46.165Z,2.40
2023-03-25T16:14:33.526Z,2.75
2023-03-25T16:17:21.830Z,2.90
2023-03-25T16:20:09.706Z,3.10
2023-03-25T16:22:57.864Z,3.97
2023-03-25T16:25:45.984Z,2.65
2023-03-25T16:28:42.564Z,2.88
2023-03-25T16:31:34.504Z,2.97
2023-03-25T16:34:21.038Z,2.28
2023-03-25T16:37:07.524Z,2.72
2023-03-25T16:39:54.416Z,3.42
2023-03-25T16:42:39.698Z,3.53
2023-03-25T16:45:25.478Z,3.67
2023-03-25T16:48:21.764Z,3.78
2023-03-25T16:51:35.301Z,3.40
2023-03-25T16:54:36.598Z,4.47
2023-03-25T16:57:27.695Z,3.55
2023-03-25T17:00:23.101Z,4.30
2023-03-25T17:03:15.170Z,4.45
2023-03-25T17:06:04.643Z,3.78
2023-03-25T17:08:53.407Z,3.65
2023-03-25T17:11:38.590Z,4.22
2023-03-25T17:14:30.770Z,4.18
2023-03-25T17:17:22.130Z,4.75
2023-03-25T17:20:19.930Z,3.88
2023-03-25T17:23:17.337Z,4.32
2023-03-25T17:26:07.456Z,3.80
2023-03-25T17:28:52.879Z,4.03
2023-03-25T17:31:40.584Z,4.32
2023-03-25T17:34:27.796Z,4.72
2023-03-25T17:37:13.859Z,4.63
2023-03-25T17:40:06.741Z,4.07
2023-03-25T17:42:52.886Z,5.35
2023-03-25T17:45:37.854Z,4.35
2023-03-25T17:48:23.462Z,5.03
2023-03-25T17:51:12.214Z,5.68
2023-03-25T17:53:57.853Z,5.03
2023-03-25T17:56:43.455Z,4.97
2023-03-25T17:59:28.354Z,4.60
2023-03-25T18:02:15.587Z,5.35
2023-03-25T18:05:01.245Z,4.78
2023-03-25T18:07:46.423Z,5.53
2023-03-25T18:10:32.556Z,5.03
2023-03-25T18:13:18.494Z,4.95
2023-03-25T18:16:03.529Z,4.63
2023-03-25T18:18:48.962Z,4.30
2023-03-25T18:21:34.248Z,3.85
2023-03-25T18:24:19.779Z,3.70
2023-03-25T18:27:06.352Z,3.35
2023-03-25T18:29:51.603Z,3.72
2023-03-25T18:32:36.600Z,4.20
2023-03-25T18:35:22.214Z,3.20
2023-03-25T18:38:19.034Z,2.85
2023-03-25T18:41:04.939Z,2.65
2023-03-25T18:43:50.446Z,3.03
2023-03-25T18:46:36.400Z,3.40
2023-03-25T18:49:21.476Z,2.85
2023-03-25T18:52:06.642Z,2.42
2023-03-25T18:54:51.756Z,2.95
2023-03-25T18:57:36.701Z,2.95
2023-03-25T19:00:29.170Z,2.95
2023-03-25T19:03:15.648Z,2.63
2023-03-25T19:06:01.312Z,2.80
2023-03-25T19:08:47.231Z,3.00
2023-03-25T19:11:33.851Z,3.20
2023-03-25T19:14:19.350Z,3.30
2023-03-25T19:17:04.554Z,2.75
2023-03-25T19:19:49.647Z,2.97
2023-03-25T19:22:35.117Z,3.40
2023-03-25T19:25:20.560Z,3.80
2023-03-25T19:28:06.647Z,3.80
2023-03-25T19:30:54.479Z,4.07
2023-03-25T19:33:40.191Z,3.47
2023-03-25T19:36:25.787Z,3.55
2023-03-25T19:39:12.485Z,3.83
2023-03-25T19:41:57.700Z,3.85
2023-03-25T19:44:43.208Z,4.65
2023-03-25T19:47:28.754Z,3.08
2023-03-25T19:50:17.539Z,3.88
2023-03-25T19:53:06.114Z,4.57
2023-03-25T19:55:52.280Z,4.13
2023-03-25T19:58:37.405Z,3.83
2023-03-25T20:01:23.132Z,4.80
2023-03-25T20:04:08.360Z,3.40
2023-03-25T20:06:53.730Z,4.57
2023-03-25T20:09:40.766Z,4.15
2023-03-25T20:12:29.146Z,4.22
2023-03-25T20:15:16.237Z,3.85
2023-03-25T20:18:01.481Z,4.32
2023-03-25T20:20:46.710Z,4.88
2023-03-25T20:23:32.166Z,4.13
2023-03-25T20:26:17.104Z,4.85
2023-03-25T20:29:03.171Z,4.22
2023-03-25T20:31:48.178Z,4.72
2023-03-25T20:34:33.839Z,4.53
2023-03-25T20:37:18.878Z,4.93
2023-03-25T20:40:06.235Z,4.95
2023-03-25T20:42:51.627Z,5.40
2023-03-25T20:45:36.905Z,5.53
2023-03-25T20:48:23.184Z,5.47
2023-03-25T20:51:12.821Z,5.88
2023-03-25T20:53:57.909Z,6.20
2023-03-25T20:56:45.812Z,7.03
2023-03-25T20:59:31.351Z,5.95
2023-03-25T21:02:17.030Z,5.60
2023-03-25T21:05:03.573Z,5.40
2023-03-25T21:07:48.980Z,6.63
2023-03-25T21:10:34.034Z,7.20
2023-03-25T21:13:19.796Z,6.60
2023-03-25T21:16:05.689Z,6.60
2023-03-25T21:18:51.328Z,6.68
2023-03-25T21:21:37.428Z,6.45
2023-03-25T21:24:22.562Z,6.15
2023-03-25T21:27:07.652Z,5.63
2023-03-25T21:29:52.665Z,6.28
2023-03-25T21:32:38.984Z,6.50
2023-03-25T21:35:24.429Z,6.65
2023-03-25T21:38:09.745Z,6.72
2023-03-25T21:40:56.383Z,6.72
2023-03-25T21:43:42.334Z,6.20
2023-03-25T21:46:27.910Z,6.72
2023-03-25T21:49:13.265Z,7.53
2023-03-25T21:51:58.454Z,6.97
2023-03-25T21:54:48.393Z,6.40
2023-03-25T21:57:37.719Z,6.40
2023-03-25T22:00:24.687Z,7.00
2023-03-25T22:03:12.115Z,7.15
2023-03-25T22:06:02.068Z,6.05
2023-03-25T22:08:47.677Z,7.80
2023-03-25T22:11:35.175Z,6.57
2023-03-25T22:14:20.128Z,6.03
2023-03-25T22:17:05.695Z,6.05
2023-03-25T22:19:51.216Z,6.13
2023-03-25T22:22:36.840Z,6.45
2023-03-25T22:25:21.966Z,6.60
2023-03-25T22:28:07.227Z,6.75
2023-03-25T22:30:52.498Z,6.88
2023-03-25T22:33:38.546Z,7.93
2023-03-25T22:36:24.206Z,5.78
2023-03-25T22:39:10.416Z,6.75
2023-03-25T22:41:57.874Z,6.53
2023-03-25T22:44:44.784Z,7.10
2023-03-25T22:47:30.055Z,7.35
2023-03-25T22:50:15.482Z,6.22
2023-03-25T22:53:00.523Z,6.80
2023-03-25T22:55:53.258Z,5.82
2023-03-25T22:58:39.454Z,6.93
2023-03-25T23:01:26.479Z,6.70
2023-03-25T23:04:11.323Z,6.60
2023-03-25T23:07:07.282Z,7.80
2023-03-25T23:09:53.472Z,7.70
2023-03-25T23:12:38.536Z,7.32
2023-03-25T23:15:23.544Z,7.88
2023-03-25T23:18:09.860Z,6.68
2023-03-25T23:20:56.301Z,6.88
2023-03-25T23:23:52.668Z,8.27
2023-03-25T23:26:40.933Z,7.15
2023-03-25T23:29:26.039Z,9.27
2023-03-25T23:32:11.300Z,9.02
2023-03-25T23:34:58.327Z,8.50
2023-03-25T23:37:43.580Z,8.20
2023-03-25T23:40:28.932Z,8.35
2023-03-25T23:43:14.236Z,8.63
2023-03-25T23:45:59.910Z,5.63
2023-03-25T23:48:45.376Z,7.45
2023-03-25T23:51:34.020Z,5.75
2023-03-25T23:54:19.304Z,6.57
2023-03-25T23:57:04.654Z,6.00
2023-03-25T23:59:49.871Z,6.22
